Time;durP1;ratioP1;P1;durP2;ratioP2;P2;SDS_P1;SDS_P2;PMS_P1;PMS_P2;Temp;Humidity;BMP_temperature;BMP_pressure;BME280_temperature;BME280_humidity;BME280_pressure;Samples;Min_cycle;Max_cycle;Signal;HPM_P1;HPM_P2
2022/09/19 03:03:00;;;;;;;5.60;4.00;;;;;;;13.69;75.63;101795.59;4949172;23;20132;-46
2022/09/19 03:05:28;;;;;;;10.32;4.68;;;;;;;13.70;75.65;101800.81;5007221;28;20046;-45
2022/09/19 03:08:02;;;;;;;9.80;5.30;;;;;;;13.69;76.08;101801.97;4998100;28;20056;-47
2022/09/19 03:10:35;;;;;;;8.52;5.13;;;;;;;13.69;75.96;101795.59;4984819;28;20385;-50
2022/09/19 03:13:06;;;;;;;;;;;;;;;13.69;76.11;101793.63;5004997;28;20499;-46
2022/09/19 03:15:47;;;;;;;8.60;4.70;;;;;;;13.71;75.87;101796.09;5007038;28;19926;-47
2022/09/19 03:18:17;;;;;;;7.80;4.55;;;;;;;13.69;76.03;101799.19;5002385;28;20393;-46
2022/09/19 03:20:53;;;;;;;6.95;4.70;;;;;;;13.68;76.22;101797.56;5008474;28;20044;-45
2022/09/19 03:23:26;;;;;;;7.80;4.28;;;;;;;13.71;76.28;101793.31;4973983;28;20062;-46
2022/09/19 03:25:53;;;;;;;9.32;4.03;;;;;;;13.71;76.37;101802.47;5002385;28;20074;-46
2022/09/19 03:28:21;;;;;;;13.52;5.78;;;;;;;13.70;76.43;101806.41;5008004;28;20042;-46
2022/09/19 03:30:48;;;;;;;7.25;4.40;;;;;;;13.68;76.31;101793.97;5009631;28;20042;-44
2022/09/19 03:33:17;;;;;;;7.22;5.13;;;;;;;13.69;76.47;101796.41;5009977;28;20050;-44
2022/09/19 03:35:44;;;;;;;14.23;5.88;;;;;;;13.66;76.54;101794.31;5005406;28;20054;-45
2022/09/19 03:38:12;;;;;;;7.43;4.68;;;;;;;13.68;76.58;101794.78;5006747;28;20041;-48
2022/09/19 03:40:40;;;;;;;7.95;4.60;;;;;;;13.71;76.63;101796.91;5007911;28;20046;-44
2022/09/19 03:43:07;;;;;;;9.00;5.00;;;;;;;13.71;76.71;101808.03;5008113;28;20046;-44
2022/09/19 03:45:33;;;;;;;7.85;4.45;;;;;;;13.69;76.81;101796.41;5006329;28;20061;-45
2022/09/19 03:48:01;;;;;;;8.35;4.70;;;;;;;13.69;76.95;101803.94;4990689;28;20484;-44
2022/09/19 03:50:28;;;;;;;6.72;4.45;;;;;;;13.68;76.94;101803.16;5006297;28;20424;-45
2022/09/19 03:52:55;;;;;;;7.50;4.53;;;;;;;13.68;77.00;101800.38;5008320;28;20495;-46
2022/09/19 03:55:24;;;;;;;7.00;4.10;;;;;;;13.66;77.08;101799.88;5007159;28;20045;-44
2022/09/19 03:57:51;;;;;;;7.07;4.30;;;;;;;13.67;77.26;101812.63;5009772;28;20104;-46
2022/09/19 04:00:18;;;;;;;9.27;4.60;;;;;;;13.68;77.32;101808.72;4990306;28;20050;-48
2022/09/19 04:02:45;;;;;;;8.05;4.57;;;;;;;13.67;77.13;101804.28;5007033;28;20049;-45
2022/09/19 04:05:13;;;;;;;10.38;4.38;;;;;;;13.66;77.20;101811.00;5001910;28;20057;-44
2022/09/19 04:07:40;;;;;;;14.10;4.95;;;;;;;13.68;77.12;101813.47;5009936;28;20042;-45
2022/09/19 04:10:07;;;;;;;8.88;5.40;;;;;;;13.65;77.29;101800.22;5009572;28;20744;-44
2022/09/19 04:12:34;;;;;;;6.30;5.18;;;;;;;13.64;77.41;101810.53;5004237;28;20039;-44
2022/09/19 04:15:00;;;;;;;8.00;4.80;;;;;;;13.64;77.29;101810.53;5007024;28;20046;-45
2022/09/19 04:17:28;;;;;;;9.68;4.93;;;;;;;13.63;77.39;101805.31;4979226;28;20042;-47
2022/09/19 04:19:55;;;;;;;8.05;4.43;;;;;;;13.61;77.44;101802.06;5009325;28;20050;-45
2022/09/19 04:22:22;;;;;;;8.18;4.20;;;;;;;13.58;77.36;101800.75;5009830;28;20435;-45
2022/09/19 04:24:49;;;;;;;6.85;4.22;;;;;;;13.60;77.54;101809.59;4983232;28;20048;-44
2022/09/19 04:27:15;;;;;;;8.85;3.85;;;;;;;13.60;77.53;101814.34;5003439;28;20058;-44
2022/09/19 04:29:47;;;;;;;9.15;4.07;;;;;;;13.59;77.55;101816.31;5010551;28;20133;-50
2022/09/19 04:32:15;;;;;;;8.13;4.30;;;;;;;13.56;77.69;101808.63;5007206;28;20049;-48
2022/09/19 04:34:43;;;;;;;7.63;4.00;;;;;;;13.55;77.80;101814.53;5012724;28;20053;-51
2022/09/19 04:37:13;;;;;;;7.43;4.57;;;;;;;13.52;78.00;101810.47;5009043;28;20060;-45
2022/09/19 04:39:40;;;;;;;8.30;4.68;;;;;;;13.51;77.87;101811.63;5013053;28;20038;-45
2022/09/19 04:42:07;;;;;;;8.23;4.13;;;;;;;13.49;78.01;101811.16;5009926;28;20041;-45
2022/09/19 04:44:35;;;;;;;10.27;4.80;;;;;;;13.49;78.12;101805.59;5012649;28;20072;-46
2022/09/19 04:47:05;;;;;;;8.52;5.43;;;;;;;13.48;78.33;101806.72;5010473;28;20050;-46
2022/09/19 04:49:36;;;;;;;5.90;3.92;;;;;;;13.49;78.28;101811.16;5004677;28;20062;-50
2022/09/19 04:52:03;;;;;;;5.07;3.50;;;;;;;13.49;78.31;101811.16;5011203;28;20136;-46
2022/09/19 04:54:35;;;;;;;6.63;4.35;;;;;;;13.47;78.36;101810.69;5008448;28;20046;-44
2022/09/19 04:57:05;;;;;;;10.40;4.47;;;;;;;13.47;78.46;101812.66;5009711;28;20136;-45
2022/09/19 04:59:33;;;;;;;13.48;4.95;;;;;;;13.47;78.21;101812.66;4993111;28;20026;-46
2022/09/19 05:02:01;;;;;;;9.07;4.65;;;;;;;13.46;78.38;101809.03;5008825;28;20057;-44
2022/09/19 05:04:28;;;;;;;5.75;3.95;;;;;;;13.45;78.24;101810.19;5008661;28;20045;-44
2022/09/19 05:06:55;;;;;;;8.65;4.30;;;;;;;13.44;78.51;101814.13;5013732;28;20060;-44
2022/09/19 05:09:22;;;;;;;5.53;4.40;;;;;;;13.41;78.64;101806.47;5015596;28;20038;-49
2022/09/19 05:11:49;;;;;;;8.43;4.65;;;;;;;13.41;78.60;101806.47;4992789;28;20492;-44
2022/09/19 05:14:21;;;;;;;6.32;3.97;;;;;;;13.39;78.91;101812.38;5008371;28;20331;-51
2022/09/19 05:16:50;;;;;;;5.53;4.03;;;;;;;13.40;78.75;101813.16;5010660;28;20046;-45
2022/09/19 05:19:17;;;;;;;6.55;4.47;;;;;;;13.37;78.87;101811.88;5008925;28;20053;-44
2022/09/19 05:21:44;;;;;;;11.18;4.63;;;;;;;13.36;78.86;101812.22;5009370;28;20053;-45
2022/09/19 05:24:11;;;;;;;9.00;5.40;;;;;;;13.35;78.96;101810.59;5007638;28;20408;-48
2022/09/19 05:26:40;;;;;;;7.20;4.65;;;;;;;13.33;79.11;101812.91;5013492;28;20107;-44
2022/09/19 05:29:08;;;;;;;8.30;4.90;;;;;;;13.30;79.35;101819.13;5011422;28;20074;-46
2022/09/19 05:31:37;;;;;;;7.20;3.65;;;;;;;13.28;79.43;101810.31;5012621;28;20085;-44
2022/09/19 05:34:04;;;;;;;7.32;4.10;;;;;;;13.28;79.46;101810.31;5008443;28;20133;-46
2022/09/19 05:36:31;;;;;;;6.90;4.35;;;;;;;13.28;79.49;101804.75;5010894;28;20525;-44
2022/09/19 05:38:58;;;;;;;6.40;3.85;;;;;;;13.29;79.72;101817.53;5011295;28;20377;-46
2022/09/19 05:41:25;;;;;;;5.32;3.95;;;;;;;13.28;79.88;101810.31;5011160;28;20057;-44
2022/09/19 05:43:52;;;;;;;6.68;4.40;;;;;;;13.28;79.82;101811.16;5010825;28;20508;-45
2022/09/19 05:46:20;;;;;;;6.53;4.30;;;;;;;13.30;79.78;101802.44;5010528;28;20053;-44
2022/09/19 05:48:48;;;;;;;6.38;4.38;;;;;;;13.28;79.78;101811.16;5008937;28;20052;-45
2022/09/19 05:51:15;;;;;;;7.32;3.95;;;;;;;13.29;79.76;101800.84;5011635;28;20484;-44
2022/09/19 05:53:54;;;;;;;8.05;4.20;;;;;;;13.30;79.60;101808.00;5010711;28;20054;-44
2022/09/19 05:56:22;;;;;;;10.18;4.15;;;;;;;13.29;79.96;101800.84;5009576;28;20656;-44
2022/09/19 05:58:53;;;;;;;8.13;4.13;;;;;;;13.30;79.86;101805.22;5016785;28;20041;-45
2022/09/19 06:01:20;;;;;;;6.50;4.60;;;;;;;13.30;79.96;101802.44;5009627;28;20053;-45
2022/09/19 06:03:47;;;;;;;8.13;3.78;;;;;;;13.31;79.82;101801.31;5002724;28;20752;-46
2022/09/19 06:06:20;;;;;;;7.07;4.40;;;;;;;13.31;80.19;101804.09;5011046;28;20484;-44
2022/09/19 06:08:55;;;;;;;8.05;3.97;;;;;;;13.30;80.27;101806.06;5005308;28;20380;-45
2022/09/19 06:11:23;;;;;;;8.52;4.68;;;;;;;13.28;80.20;101807.53;5008912;28;20092;-48
2022/09/19 06:16:36;;;;;;;6.78;3.95;;;;;;;13.30;80.34;101813.56;5005304;28;20053;-45
2022/09/19 06:19:04;;;;;;;7.18;4.35;;;;;;;13.30;80.46;101808.00;5005472;28;20046;-45
2022/09/19 06:21:31;;;;;;;7.78;4.40;;;;;;;13.31;80.23;101812.44;5014192;28;20125;-45
2022/09/19 06:23:58;;;;;;;9.45;4.40;;;;;;;13.32;80.53;101812.09;5008338;28;20139;-50
2022/09/19 06:26:26;;;;;;;5.80;4.28;;;;;;;13.34;80.30;101815.34;5003472;28;20058;-45
2022/09/19 06:28:53;;;;;;;5.43;4.00;;;;;;;13.35;80.51;101810.59;5007834;28;20049;-46
2022/09/19 06:31:20;;;;;;;7.07;5.00;;;;;;;13.35;80.55;101816.16;4995720;28;20038;-46
2022/09/19 06:33:47;;;;;;;6.65;4.60;;;;;;;13.35;80.79;101811.41;5011668;28;20049;-48
2022/09/19 06:36:14;;;;;;;7.53;4.60;;;;;;;13.37;80.81;101811.88;5008079;28;20049;-45
2022/09/19 06:38:42;;;;;;;5.05;4.35;;;;;;;13.38;80.70;101815.47;5009081;28;20041;-44
2022/09/19 06:41:09;;;;;;;5.93;4.40;;;;;;;13.34;80.76;101811.75;5007086;28;20803;-45
2022/09/19 06:43:36;;;;;;;6.10;4.03;;;;;;;13.36;80.92;101828.91;5009016;28;20251;-47
2022/09/19 06:46:03;;;;;;;7.28;4.55;;;;;;;13.38;81.16;101821.03;5014672;28;20059;-46
2022/09/19 06:48:31;;;;;;;7.15;4.32;;;;;;;13.39;81.11;101822.69;5011361;28;20140;-46
2022/09/19 06:50:57;;;;;;;7.28;5.07;;;;;;;13.40;80.88;101824.28;5013827;28;20081;-50
2022/09/19 06:53:24;;;;;;;9.07;4.38;;;;;;;13.43;81.03;101826.41;5008956;28;20073;-44
2022/09/19 06:55:51;;;;;;;5.40;3.85;;;;;;;13.44;80.92;101833.59;5009840;28;20045;-44
2022/09/19 06:58:19;;;;;;;6.78;4.00;;;;;;;13.45;80.94;101832.44;5010117;28;20077;-46
2022/09/19 07:00:46;;;;;;;9.10;4.53;;;;;;;13.48;80.94;101833.72;5009359;28;20428;-46
2022/09/19 07:03:15;;;;;;;9.25;4.80;;;;;;;13.49;81.00;101838.97;5010672;28;20184;-45
2022/09/19 07:05:44;;;;;;;5.95;3.92;;;;;;;13.49;81.14;101847.31;5008209;28;20474;-44
2022/09/19 07:08:13;;;;;;;7.22;4.15;;;;;;;13.52;80.84;101852.22;5009818;28;20052;-46
2022/09/19 07:10:41;;;;;;;6.47;4.28;;;;;;;13.56;81.02;101849.53;5011182;28;20049;-45
2022/09/19 07:13:13;;;;;;;7.13;3.95;;;;;;;13.61;81.08;101855.72;5009622;28;20058;-47
2022/09/19 07:15:41;;;;;;;8.02;3.80;;;;;;;13.67;81.01;101856.34;5008330;28;21397;-47
2022/09/19 07:18:10;;;;;;;7.57;4.10;;;;;;;13.73;80.92;101855.81;5008366;28;20054;-47
2022/09/19 07:20:37;;;;;;;7.85;4.00;;;;;;;13.78;80.91;101860.34;5009261;28;20045;-45
2022/09/19 07:23:15;;;;;;;5.72;4.00;;;;;;;13.81;80.66;101852.16;5009358;28;20455;-46
2022/09/19 07:25:43;;;;;;;8.85;4.32;;;;;;;13.83;80.55;101857.38;5009461;28;20654;-45
2022/09/19 07:28:14;;;;;;;8.40;4.28;;;;;;;13.84;80.60;101854.25;5004552;28;20057;-46
2022/09/19 07:30:43;;;;;;;7.45;4.63;;;;;;;13.89;80.63;101851.25;5000763;28;20045;-49
2022/09/19 07:33:12;;;;;;;6.45;4.28;;;;;;;13.92;80.70;101853.38;4989329;28;20042;-48
2022/09/19 07:35:42;;;;;;;9.77;4.60;;;;;;;13.96;80.49;101853.47;5002578;28;20049;-46
2022/09/19 07:38:12;;;;;;;5.78;3.78;;;;;;;13.98;80.59;101863.13;5009124;28;20137;-48
2022/09/19 07:40:40;;;;;;;6.18;4.85;;;;;;;13.98;80.64;101856.72;5008769;28;20758;-43
2022/09/19 07:43:07;;;;;;;5.63;3.67;;;;;;;14.00;80.56;101860.00;5008530;28;20058;-44
2022/09/19 07:45:36;;;;;;;9.48;4.13;;;;;;;14.03;80.74;101864.91;5009054;28;20041;-45
2022/09/19 07:48:04;;;;;;;8.82;4.38;;;;;;;14.06;80.63;101857.84;5006662;28;20177;-47
2022/09/19 07:50:31;;;;;;;5.65;4.25;;;;;;;14.08;80.47;101867.47;5005989;28;20729;-46
2022/09/19 07:52:59;;;;;;;8.30;4.35;;;;;;;14.08;80.49;101878.63;5005935;28;20041;-44
2022/09/19 07:55:27;;;;;;;5.88;4.28;;;;;;;14.09;80.45;101884.97;5008991;28;20045;-47
2022/09/19 07:57:56;;;;;;;6.95;3.90;;;;;;;14.08;80.57;101884.19;5006892;28;20053;-44
2022/09/19 08:00:25;;;;;;;5.13;4.05;;;;;;;14.10;80.46;101889.41;5006200;28;20048;-43
2022/09/19 08:02:55;;;;;;;6.18;3.90;;;;;;;14.11;80.46;101897.41;5009076;28;20050;-42
2022/09/19 08:05:22;;;;;;;6.95;4.25;;;;;;;14.13;80.50;101897.06;5008986;28;20492;-44
2022/09/19 08:07:49;;;;;;;6.75;3.60;;;;;;;14.16;80.63;101900.00;5009883;28;20108;-44
2022/09/19 08:10:17;;;;;;;6.00;3.53;;;;;;;14.13;80.30;101902.66;5007954;28;20049;-43
2022/09/19 08:12:44;;;;;;;10.60;5.15;;;;;;;14.10;80.33;101893.00;5007105;28;20038;-44
2022/09/19 08:15:15;;;;;;;5.65;4.43;;;;;;;14.12;80.63;101892.66;5003626;28;20147;-43
2022/09/19 08:17:43;;;;;;;5.72;3.72;;;;;;;14.15;80.46;101905.91;5009333;28;20046;-44
2022/09/19 08:20:10;;;;;;;12.75;5.82;;;;;;;14.19;80.78;101901.28;5004092;28;20476;-44
2022/09/19 08:22:37;;;;;;;6.70;4.55;;;;;;;14.24;80.52;101889.94;5006309;28;20095;-43
2022/09/19 08:25:04;;;;;;;7.45;4.82;;;;;;;14.29;80.57;101900.88;5008696;28;20060;-43
2022/09/19 08:27:30;;;;;;;9.63;5.78;;;;;;;14.35;80.54;101899.53;5007841;28;20113;-44
2022/09/19 08:29:58;;;;;;;5.93;4.05;;;;;;;14.42;80.47;101889.44;5006015;28;20046;-43
2022/09/19 08:32:26;;;;;;;6.30;4.13;;;;;;;14.51;80.50;101897.69;5005531;28;20129;-43
2022/09/19 08:34:53;;;;;;;5.15;4.07;;;;;;;14.64;80.33;101891.81;5007951;28;20558;-44
2022/09/19 08:37:21;;;;;;;7.82;4.22;;;;;;;14.77;80.25;101889.91;5013042;28;20057;-50
2022/09/19 08:43:05;;;;;;;6.70;4.13;;;;;;;14.93;79.88;101892.81;4997982;28;20180;-49
2022/09/19 08:45:44;;;;;;;5.03;4.05;;;;;;;14.99;79.75;101892.22;5001864;28;20046;-44
2022/09/19 08:48:20;;;;;;;6.70;4.63;;;;;;;15.04;79.59;101889.22;5003246;28;20136;-44
2022/09/19 08:51:06;;;;;;;6.50;3.35;;;;;;;15.10;79.52;101903.75;5004838;28;20077;-45
2022/09/19 08:53:41;;;;;;;5.18;4.13;;;;;;;15.16;79.20;101892.03;5005578;28;20403;-45
2022/09/19 08:56:13;;;;;;;8.50;3.90;;;;;;;15.22;79.20;101896.19;5006461;28;20464;-44
2022/09/19 08:58:47;;;;;;;9.57;3.53;;;;;;;15.27;79.06;101904.31;4998233;28;20073;-45
2022/09/19 09:01:16;;;;;;;6.97;3.60;;;;;;;15.30;78.67;101899.22;5001810;28;20146;-44
2022/09/19 09:03:52;;;;;;;7.90;3.78;;;;;;;15.29;78.59;101909.56;5007601;28;20077;-45
2022/09/19 09:06:52;;;;;;;9.57;3.75;;;;;;;15.29;78.59;101911.53;5002636;28;20046;-44
2022/09/19 09:09:28;;;;;;;10.85;4.22;;;;;;;15.27;78.39;101912.69;5005491;28;20046;-46
2022/09/19 09:12:19;;;;;;;6.57;3.90;;;;;;;15.31;78.29;101910.03;5004430;28;20129;-46
2022/09/19 09:15:17;;;;;;;8.57;3.88;;;;;;;15.31;78.19;101914.78;5008806;28;20053;-48
2022/09/19 09:18:20;;;;;;;11.80;3.70;;;;;;;15.35;78.24;101921.31;5006452;28;20046;-44
2022/09/19 09:21:27;;;;;;;6.32;3.90;;;;;;;15.39;77.82;101925.03;5013589;28;20050;-43
2022/09/19 09:24:04;;;;;;;6.40;3.10;;;;;;;15.46;77.80;101922.50;5008824;28;20061;-46
2022/09/19 09:26:57;;;;;;;7.47;3.05;;;;;;;15.56;77.53;101922.03;4999131;28;20045;-44
2022/09/19 09:29:32;;;;;;;4.93;3.22;;;;;;;15.66;77.40;101921.56;5008298;28;20495;-44
2022/09/19 09:32:15;;;;;;;9.98;3.70;;;;;;;15.74;77.07;101912.22;5009444;28;21392;-48
2022/09/19 09:35:06;;;;;;;5.03;3.33;;;;;;;15.82;76.75;101919.66;5008634;28;20046;-44
2022/09/19 09:37:42;;;;;;;7.38;3.03;;;;;;;15.91;76.54;101911.97;5004480;28;20063;-44
2022/09/19 09:43:52;;;;;;;8.57;3.40;;;;;;;16.08;75.94;101911.69;5002915;28;20042;-44
2022/09/19 09:46:25;;;;;;;;;;;;;;;16.12;75.90;101915.41;5011739;28;20057;-43
2022/09/19 09:48:52;;;;;;;;;;;;;;;16.15;75.90;101911.88;5010911;28;20498;-46
2022/09/19 09:51:50;;;;;;;4.78;2.92;;;;;;;16.26;75.67;101912.19;5009344;28;19922;-44
2022/09/19 09:57:54;;;;;;;4.63;2.20;;;;;;;16.49;74.73;101912.44;5009526;28;20053;-45
2022/09/19 10:06:38;;;;;;;5.20;2.72;;;;;;;17.03;73.21;101919.13;4982106;28;20055;-47
2022/09/19 10:09:16;;;;;;;8.38;3.22;;;;;;;17.13;72.54;101918.59;4966799;28;20616;-46
2022/09/19 10:12:09;;;;;;;5.90;3.00;;;;;;;17.18;72.33;101923.94;4991715;28;20073;-46
2022/09/19 10:14:58;;;;;;;;;;;;;;;17.20;72.25;101927.19;4991573;28;20405;-47
2022/09/19 10:17:37;;;;;;;3.60;2.72;;;;;;;17.24;71.77;101922.47;4991749;28;19925;-45
2022/09/19 10:20:12;;;;;;;4.45;2.88;;;;;;;17.24;71.21;101927.25;4984742;28;20042;-44
2022/09/19 10:22:39;;;;;;;6.60;2.97;;;;;;;17.20;70.56;101923.56;4993834;28;20038;-43
2022/09/19 10:25:12;;;;;;;6.65;2.80;;;;;;;17.18;70.33;101926.75;5005991;28;20133;-44
2022/09/19 10:27:42;;;;;;;3.75;2.60;;;;;;;17.22;69.87;101929.59;4990949;28;20074;-45
2022/09/19 10:30:22;;;;;;;7.68;3.10;;;;;;;17.25;69.84;101920.50;4989797;28;20054;-45
2022/09/19 10:32:50;;;;;;;7.65;2.97;;;;;;;17.27;69.47;101930.16;4990827;28;20077;-45
2022/09/19 10:35:33;;;;;;;3.92;2.83;;;;;;;17.28;69.55;101926.19;4989507;28;20053;-47
2022/09/19 10:38:10;;;;;;;21.75;4.30;;;;;;;17.32;69.47;101927.06;4989739;28;20065;-43
2022/09/19 10:40:37;;;;;;;5.53;3.15;;;;;;;17.28;69.14;101930.97;4989796;28;20057;-45
2022/09/19 10:43:04;;;;;;;4.72;2.47;;;;;;;17.18;69.06;101929.53;4990579;28;20057;-44
2022/09/19 10:45:36;;;;;;;5.20;3.00;;;;;;;17.12;68.98;101924.56;4990096;28;20061;-47
2022/09/19 10:48:21;;;;;;;;;;;;;;;17.02;69.38;101928.72;5005933;28;20054;-43
2022/09/19 10:50:48;;;;;;;5.80;3.25;;;;;;;17.18;68.95;101921.13;4990282;28;19922;-43
2022/09/19 10:53:25;;;;;;;4.25;2.30;;;;;;;17.45;67.98;101920.19;4990258;28;20416;-46
2022/09/19 10:55:52;;;;;;;3.92;2.97;;;;;;;17.77;67.54;101918.16;4990634;28;20048;-45
2022/09/19 10:58:26;;;;;;;7.25;2.83;;;;;;;18.05;66.78;101918.00;4988111;28;20074;-51
2022/09/19 11:01:02;;;;;;;4.05;2.85;;;;;;;18.28;66.54;101924.50;4979577;28;20038;-44
2022/09/19 11:03:32;;;;;;;6.80;3.72;;;;;;;18.44;65.92;101916.81;4984149;28;20077;-44
2022/09/19 11:06:12;;;;;;;4.60;2.83;;;;;;;18.65;65.72;101913.66;4989243;28;20467;-43
2022/09/19 11:08:49;;;;;;;4.10;3.03;;;;;;;18.73;64.89;101912.59;4981695;28;20046;-50
2022/09/19 11:11:45;;;;;;;5.90;2.88;;;;;;;18.79;64.63;101913.91;4989052;28;20126;-45
2022/09/19 11:14:22;;;;;;;6.30;2.45;;;;;;;18.88;63.99;101908.06;4990118;28;20052;-44
2022/09/19 11:17:18;;;;;;;7.30;2.60;;;;;;;18.97;63.34;101906.63;4989802;28;20105;-46
2022/09/19 11:20:31;;;;;;;3.08;2.22;;;;;;;19.28;62.92;101899.91;4969106;28;20057;-45
2022/09/19 11:23:21;;;;;;;5.90;2.83;;;;;;;19.46;62.18;101901.03;4991126;28;20069;-46
2022/09/19 11:26:03;;;;;;;4.88;2.80;;;;;;;19.48;61.75;101895.88;4989956;28;20149;-44
2022/09/19 11:28:43;;;;;;;5.35;2.25;;;;;;;19.56;61.67;101899.59;4990048;28;20046;-45
2022/09/19 11:31:19;;;;;;;4.25;2.65;;;;;;;19.61;61.19;101894.47;4989917;28;20504;-45
2022/09/19 11:34:20;;;;;;;3.80;2.50;;;;;;;19.57;60.32;101893.59;4981704;28;20050;-44
2022/09/19 11:37:06;;;;;;;4.95;3.17;;;;;;;19.42;60.15;101906.63;4987726;28;20437;-46
2022/09/19 11:40:00;;;;;;;3.67;2.25;;;;;;;19.39;60.22;101903.75;4990404;28;20058;-48
2022/09/19 11:42:32;;;;;;;5.28;2.13;;;;;;;19.30;60.43;101903.19;4986550;28;20069;-44
2022/09/19 11:45:15;;;;;;;3.67;2.72;;;;;;;19.27;60.14;101907.53;4989907;28;20045;-44
2022/09/19 11:48:31;;;;;;;4.72;1.98;;;;;;;19.20;60.09;101904.63;4989729;28;20132;-43
2022/09/19 11:51:29;;;;;;;2.72;1.63;;;;;;;19.13;59.81;101898.06;4969759;28;20485;-44
2022/09/19 11:54:15;;;;;;;5.07;1.88;;;;;;;19.09;60.16;101900.03;4973221;28;20439;-43
2022/09/19 11:57:02;;;;;;;2.97;2.10;;;;;;;19.08;60.04;101892.78;4989761;28;20493;-43
2022/09/19 11:59:41;;;;;;;2.75;1.80;;;;;;;19.03;60.26;101904.31;4989594;28;20046;-45
2022/09/19 12:02:27;;;;;;;5.43;2.00;;;;;;;19.01;59.95;101895.47;4996631;28;20142;-47
2022/09/19 12:05:17;;;;;;;3.17;1.88;;;;;;;19.02;59.65;101891.47;5007044;28;20547;-43
2022/09/19 12:08:17;;;;;;;3.55;1.95;;;;;;;19.11;59.59;101901.28;5008884;28;20057;-47
2022/09/19 12:11:09;;;;;;;2.35;1.83;;;;;;;19.12;59.36;101897.25;5007559;28;20042;-44
2022/09/19 12:13:36;;;;;;;3.20;2.65;;;;;;;19.10;59.20;101893.22;5008255;28;20404;-43
2022/09/19 12:16:09;;;;;;;4.40;1.83;;;;;;;19.02;59.54;101891.47;4979273;28;20121;-42
2022/09/19 12:18:50;;;;;;;2.70;1.90;;;;;;;19.03;59.51;101893.09;5008275;28;20160;-45
2022/09/19 12:21:22;;;;;;;3.75;2.28;;;;;;;19.10;58.92;101887.59;5008671;28;20361;-43
2022/09/19 12:27:11;;;;;;;5.68;2.35;;;;;;;19.09;58.63;101891.59;5008813;28;20041;-45
2022/09/19 12:29:52;;;;;;;4.80;1.67;;;;;;;19.23;58.86;101891.81;5008889;28;20038;-44
2022/09/19 12:32:32;;;;;;;2.00;1.45;;;;;;;19.42;58.54;101883.34;5007443;28;20049;-43
2022/09/19 12:35:18;;;;;;;3.90;1.40;;;;;;;19.68;58.73;101891.75;4990965;28;20054;-46
2022/09/19 12:37:56;;;;;;;4.85;1.52;;;;;;;19.87;58.48;101890.81;5008690;28;20140;-42
2022/09/19 12:40:28;;;;;;;2.30;1.55;;;;;;;19.97;57.95;101898.56;5008525;28;20377;-49
2022/09/19 12:43:06;;;;;;;2.37;1.53;;;;;;;19.90;58.23;101888.06;4990143;28;20049;-46
2022/09/19 12:45:46;;;;;;;4.15;1.30;;;;;;;19.77;57.66;101891.47;5008870;28;20492;-47
2022/09/19 12:48:40;;;;;;;1.75;1.10;;;;;;;19.77;58.08;101886.69;5008843;28;20066;-48
2022/09/19 12:51:13;;;;;;;5.28;1.65;;;;;;;19.75;57.96;101888.25;5008754;28;20046;-46
2022/09/19 12:54:06;;;;;;;2.97;1.50;;;;;;;19.75;58.17;101891.84;5008757;28;20042;-44
2022/09/19 12:56:38;;;;;;;8.07;2.28;;;;;;;19.73;57.80;101887.78;5010279;28;20454;-45
2022/09/19 12:59:24;;;;;;;4.80;1.40;;;;;;;19.70;57.81;101878.13;5005783;28;20049;-43
2022/09/19 13:02:12;;;;;;;2.40;1.70;;;;;;;19.65;57.89;101889.69;5012310;28;20061;-46
2022/09/19 13:04:59;;;;;;;1.20;0.85;;;;;;;19.60;57.94;101883.59;5000080;28;20460;-42
2022/09/19 13:07:49;;;;;;;2.88;1.30;;;;;;;19.54;57.64;101890.75;5008872;28;20057;-47
2022/09/19 13:10:39;;;;;;;1.92;1.30;;;;;;;19.42;57.74;101894.56;5012085;28;20056;-50
2022/09/19 13:13:32;;;;;;;4.40;1.23;;;;;;;19.36;57.61;101884.81;5009654;28;20053;-49
2022/09/19 13:16:05;;;;;;;5.28;1.40;;;;;;;19.30;57.62;101883.53;5008727;28;20069;-46
2022/09/19 13:24:18;;;;;;;2.08;0.95;;;;;;;19.30;57.40;101897.56;5014862;28;20046;-44
2022/09/19 13:26:53;;;;;;;4.60;1.30;;;;;;;19.33;57.33;101893.97;5012066;28;20049;-43
2022/09/19 13:29:26;;;;;;;7.45;1.48;;;;;;;19.30;57.01;101891.97;5008466;28;20041;-43
2022/09/19 13:31:55;;;;;;;2.17;1.15;;;;;;;19.33;56.89;101886.38;5011488;28;20041;-44
2022/09/19 13:34:44;;;;;;;2.95;1.00;;;;;;;19.34;57.07;101896.44;5011901;28;20144;-44
2022/09/19 13:37:34;;;;;;;2.83;1.40;;;;;;;19.27;57.42;101887.88;5011808;28;20578;-43
2022/09/19 13:40:39;;;;;;;3.80;1.23;;;;;;;19.20;57.66;101887.78;5010250;28;20137;-44
2022/09/19 13:43:09;;;;;;;3.03;0.95;;;;;;;19.11;57.47;101892.84;5009719;28;20044;-43
2022/09/19 13:45:57;;;;;;;4.70;1.13;;;;;;;19.03;57.91;101887.47;5008409;28;20500;-45
2022/09/19 13:48:42;;;;;;;3.90;1.20;;;;;;;18.99;58.19;101886.59;5011309;28;20060;-44
2022/09/19 13:51:19;;;;;;;4.55;1.23;;;;;;;18.94;57.91;101889.72;5011632;28;20133;-44
2022/09/19 13:54:18;;;;;;;4.38;1.30;;;;;;;18.81;57.58;101891.91;4993938;28;20053;-43
2022/09/19 13:57:04;;;;;;;5.10;2.17;;;;;;;18.76;57.71;101883.81;5011331;28;20048;-44
2022/09/19 13:59:49;;;;;;;3.97;1.63;;;;;;;18.76;57.75;101887.41;5010760;28;20412;-43
2022/09/19 14:02:16;;;;;;;3.45;1.88;;;;;;;18.75;57.98;101894.22;5010482;28;20081;-44
2022/09/19 14:05:00;;;;;;;7.35;3.80;;;;;;;18.74;58.56;101889.75;5011150;28;20531;-46
2022/09/19 14:07:46;;;;;;;8.45;4.07;;;;;;;18.70;58.68;101886.09;5007326;28;20046;-43
2022/09/19 14:10:52;;;;;;;9.32;3.95;;;;;;;18.65;59.07;101883.59;5010754;28;20037;-43
2022/09/19 14:13:24;;;;;;;9.07;3.95;;;;;;;18.65;59.33;101889.22;4999847;28;20104;-45
2022/09/19 14:15:54;;;;;;;6.38;3.63;;;;;;;18.63;59.73;101880.38;4991110;28;20878;-45
2022/09/19 14:18:43;;;;;;;8.05;3.83;;;;;;;18.62;59.86;101878.72;4993122;28;20049;-44
2022/09/19 14:21:34;;;;;;;6.00;3.95;;;;;;;18.60;59.67;101881.09;5010891;28;20141;-44
2022/09/19 14:24:11;;;;;;;6.65;3.38;;;;;;;18.59;60.03;101875.84;5009897;28;20054;-44
2022/09/19 14:27:15;;;;;;;7.70;3.63;;;;;;;18.56;59.87;101874.59;5010221;28;20571;-45
2022/09/19 14:30:03;;;;;;;5.57;2.88;;;;;;;18.53;59.96;101868.94;5009857;28;20045;-45
2022/09/19 14:32:39;;;;;;;5.45;3.53;;;;;;;18.50;60.17;101869.69;5010521;28;20415;-46
2022/09/19 14:35:30;;;;;;;6.80;3.63;;;;;;;18.47;60.05;101861.97;4997142;28;20057;-43
2022/09/19 14:38:18;;;;;;;7.95;3.85;;;;;;;18.45;60.45;101879.19;5010506;28;20057;-43
2022/09/19 14:41:12;;;;;;;9.45;4.35;;;;;;;18.43;60.56;101870.31;5009291;28;20073;-43
2022/09/19 14:43:58;;;;;;;8.93;3.17;;;;;;;18.42;60.53;101871.53;4997482;28;20042;-45
2022/09/19 14:46:36;;;;;;;8.38;3.35;;;;;;;18.44;60.62;101860.72;4983633;28;20045;-47
2022/09/19 14:49:27;;;;;;;7.07;3.35;;;;;;;18.47;60.59;101856.38;5010372;28;20056;-44
2022/09/19 14:52:00;;;;;;;8.93;4.40;;;;;;;18.51;60.83;101860.06;5010225;28;20049;-44
2022/09/19 14:54:34;;;;;;;10.90;3.97;;;;;;;18.56;60.92;101866.19;5008689;28;20068;-43
2022/09/19 14:57:13;;;;;;;9.73;3.58;;;;;;;18.61;61.24;101865.09;5008458;28;20732;-42
2022/09/19 14:59:40;;;;;;;9.90;5.03;;;;;;;18.74;60.96;101860.94;5009969;28;20039;-46
2022/09/19 15:02:21;;;;;;;8.55;3.88;;;;;;;18.89;60.92;101859.16;5009671;28;20074;-44
2022/09/19 15:04:51;;;;;;;6.97;3.67;;;;;;;19.03;60.46;101860.22;5009956;28;20081;-44
2022/09/19 15:07:28;;;;;;;9.82;4.15;;;;;;;19.14;60.45;101854.78;5005249;28;20140;-44
2022/09/19 15:09:56;;;;;;;51.95;11.15;;;;;;;19.17;59.85;101865.25;5007834;28;20061;-45
2022/09/19 15:12:43;;;;;;;27.35;9.65;;;;;;;19.21;59.81;101852.09;5010063;28;20404;-44
2022/09/19 15:15:14;;;;;;;47.97;13.68;;;;;;;19.20;60.19;101859.69;5008771;28;20422;-48
2022/09/19 15:17:42;;;;;;;16.00;6.25;;;;;;;19.17;60.10;101857.63;5008364;28;20361;-46
2022/09/19 15:20:12;;;;;;;28.10;8.35;;;;;;;19.11;60.15;101855.53;5009534;28;20054;-47
2022/09/19 15:22:51;;;;;;;101.20;19.63;;;;;;;19.08;59.94;101851.50;5012363;28;20111;-46
2022/09/19 15:25:27;;;;;;;11.77;5.30;;;;;;;19.14;60.19;101854.78;5007879;28;20037;-45
2022/09/19 15:28:02;;;;;;;15.18;5.45;;;;;;;19.14;60.50;101837.94;5009278;28;20060;-46
2022/09/19 15:30:29;;;;;;;10.75;4.72;;;;;;;19.11;60.56;101849.94;4999810;28;20060;-43
2022/09/19 15:33:11;;;;;;;7.65;4.18;;;;;;;19.04;60.54;101849.78;5008364;28;20598;-45